Time;durP1;ratioP1;P1;durP2;ratioP2;P2;SDS_P1;SDS_P2;PMS_P1;PMS_P2;Temp;Humidity;BMP_temperature;BMP_pressure;BME280_temperature;BME280_humidity;BME280_pressure;Samples;Min_cycle;Max_cycle;Signal;HPM_P1;HPM_P2
2023/04/18 00:00:09;;;;;;;13.52;9.43;;;;;;;8.47;75.30;100032.28;335694;28;4576;-70
2023/04/18 00:00:22;;;;;;;13.02;9.55;;;;;;;8.47;75.67;100031.41;332787;28;9117;-72
2023/04/18 00:00:34;;;;;;;13.68;10.10;;;;;;;8.44;75.05;100026.28;336534;28;4625;-71
2023/04/18 00:00:47;;;;;;;12.70;9.80;;;;;;;8.45;75.27;100022.81;336451;28;4625;-71
2023/04/18 00:01:00;;;;;;;11.15;9.13;;;;;;;8.51;75.24;100022.69;333188;28;17931;-71
2023/04/18 00:01:13;;;;;;;11.88;9.25;;;;;;;8.50;74.87;100026.19;334506;28;18145;-72
2023/04/18 00:01:25;;;;;;;12.23;9.15;;;;;;;8.52;74.66;100034.78;336008;28;4627;-71
2023/04/18 00:01:37;;;;;;;14.02;9.45;;;;;;;8.44;74.34;100021.13;332401;29;18150;-71
2023/04/18 00:01:50;;;;;;;15.13;9.90;;;;;;;8.39;74.08;100024.59;335346;28;4597;-71
2023/04/18 00:02:02;;;;;;;14.07;9.45;;;;;;;8.36;74.08;100027.25;332709;29;18942;-71
2023/04/18 00:02:16;;;;;;;13.30;9.15;;;;;;;8.35;74.25;100022.97;335713;29;5430;-71
2023/04/18 00:02:28;;;;;;;12.18;9.05;;;;;;;8.36;74.57;100023.81;332369;29;17682;-71
2023/04/18 00:02:42;;;;;;;12.13;8.98;;;;;;;8.37;75.31;100031.56;334181;28;4587;-71
2023/04/18 00:02:55;;;;;;;13.43;9.10;;;;;;;8.38;76.30;100030.66;330543;29;18871;-70
2023/04/18 00:03:08;;;;;;;13.45;8.90;;;;;;;8.44;76.02;100026.28;331939;29;18237;-70
2023/04/18 00:03:20;;;;;;;13.43;9.32;;;;;;;8.42;76.32;100025.47;334845;29;4604;-71
2023/04/18 00:03:33;;;;;;;14.35;9.48;;;;;;;8.31;76.99;100018.72;331560;29;19063;-70
2023/04/18 00:03:45;;;;;;;15.43;9.05;;;;;;;8.30;77.12;100024.75;334968;29;5260;-71
2023/04/18 00:03:58;;;;;;;13.98;9.20;;;;;;;8.34;77.19;100026.41;333336;28;18259;-71
2023/04/18 00:04:10;;;;;;;13.82;9.05;;;;;;;8.42;77.09;100023.72;336132;28;5629;-71
2023/04/18 00:04:24;;;;;;;12.35;9.23;;;;;;;8.49;77.06;100024.47;333627;28;18309;-70
2023/04/18 00:04:36;;;;;;;13.45;9.45;;;;;;;8.52;76.82;100021.81;335640;28;11883;-72
2023/04/18 00:04:49;;;;;;;13.88;9.75;;;;;;;8.53;76.73;100032.16;333088;28;17942;-71
2023/04/18 00:05:02;;;;;;;14.40;9.98;;;;;;;8.50;76.83;100021.00;333642;29;5385;-72
2023/04/18 00:05:16;;;;;;;13.07;9.70;;;;;;;8.52;77.12;100021.81;332571;29;17420;-71
2023/04/18 00:05:29;;;;;;;12.90;9.50;;;;;;;8.56;77.25;100021.72;332568;28;18313;-71
2023/04/18 00:05:42;;;;;;;12.63;9.13;;;;;;;8.62;77.01;100019.94;335958;28;5609;-70
2023/04/18 00:05:55;;;;;;;12.90;8.57;;;;;;;8.66;76.87;100022.41;331975;28;17788;-71
2023/04/18 00:06:06;;;;;;;12.05;8.70;;;;;;;8.70;76.70;100024.06;329229;29;18729;-71
2023/04/18 00:06:21;;;;;;;11.70;8.90;;;;;;;8.74;76.80;100017.94;333648;29;4801;-71
2023/04/18 00:06:34;;;;;;;12.30;9.23;;;;;;;8.69;76.30;100021.50;331956;29;19121;-70
2023/04/18 00:06:50;;;;;;;11.57;9.25;;;;;;;8.68;76.31;100020.66;332283;28;6619;-71
2023/04/18 00:07:02;;;;;;;12.82;9.27;;;;;;;8.69;76.51;100019.78;333165;28;18209;-72
2023/04/18 00:07:15;;;;;;;14.07;9.60;;;;;;;8.67;76.17;100023.25;336196;28;4641;-71
2023/04/18 00:07:27;;;;;;;13.40;9.55;;;;;;;8.65;76.01;100018.09;333685;28;18239;-72
2023/04/18 00:07:39;;;;;;;14.57;9.70;;;;;;;8.61;77.32;100024.22;336133;28;4661;-71
2023/04/18 00:07:51;;;;;;;14.50;9.75;;;;;;;8.50;77.09;100021.84;336023;28;5307;-72
2023/04/18 00:08:04;;;;;;;13.13;9.48;;;;;;;8.50;77.71;100021.00;333301;28;18282;-70
2023/04/18 00:08:16;;;;;;;12.68;9.43;;;;;;;8.52;78.08;100016.66;335296;28;4747;-72
2023/04/18 00:08:28;;;;;;;12.25;9.40;;;;;;;8.57;77.69;100020.00;332118;28;18082;-70
2023/04/18 00:08:40;;;;;;;11.85;9.25;;;;;;;8.61;77.29;100016.47;335277;28;5416;-71
2023/04/18 00:08:52;;;;;;;12.27;9.27;;;;;;;8.63;77.14;100019.88;332341;29;18313;-71
2023/04/18 00:09:04;;;;;;;12.57;9.35;;;;;;;8.60;77.32;100017.34;332293;29;4697;-70
2023/04/18 00:09:16;;;;;;;13.30;9.65;;;;;;;8.57;77.20;100020.00;332994;29;5354;-71
2023/04/18 00:09:28;;;;;;;14.25;9.82;;;;;;;8.51;77.19;100014.91;329773;29;18221;-71
2023/04/18 00:09:40;;;;;;;14.90;9.98;;;;;;;8.54;77.50;100020.06;332122;29;5936;-71
2023/04/18 00:09:52;;;;;;;13.70;9.90;;;;;;;8.52;77.06;100011.47;331080;28;18266;-71
2023/04/18 00:10:05;;;;;;;14.43;10.05;;;;;;;8.43;77.05;100019.38;334439;28;5500;-71
2023/04/18 00:10:17;;;;;;;14.70;9.82;;;;;;;8.40;77.26;100021.13;331749;28;18207;-69
2023/04/18 00:10:29;;;;;;;14.57;9.88;;;;;;;8.33;77.50;100016.94;333942;28;4698;-70
2023/04/18 00:10:41;;;;;;;15.43;9.77;;;;;;;8.34;77.68;100016.06;332568;28;5208;-72
2023/04/18 00:10:53;;;;;;;14.55;9.80;;;;;;;8.32;77.75;100019.56;333973;28;4654;-69
2023/04/18 00:11:05;;;;;;;13.43;9.90;;;;;;;8.32;77.87;100017.81;334401;28;4694;-69
2023/04/18 00:11:17;;;;;;;12.95;9.68;;;;;;;8.35;77.95;100022.06;333330;28;18267;-70
2023/04/18 00:11:29;;;;;;;13.35;9.65;;;;;;;8.33;78.02;100010.88;335634;28;4689;-70
2023/04/18 00:11:41;;;;;;;13.35;9.60;;;;;;;8.30;77.76;100016.97;331198;28;5061;-72
2023/04/18 00:11:53;;;;;;;13.60;9.68;;;;;;;8.32;77.10;100017.81;335651;28;5276;-70
2023/04/18 00:12:05;;;;;;;14.52;9.90;;;;;;;8.29;76.55;100017.88;336273;28;4779;-70
2023/04/18 00:12:17;;;;;;;13.68;9.85;;;;;;;8.25;76.53;100011.06;332056;28;18012;-70
2023/04/18 00:12:30;;;;;;;14.48;9.68;;;;;;;8.24;76.16;100014.50;334986;28;4515;-72
2023/04/18 00:12:42;;;;;;;14.52;9.95;;;;;;;8.20;76.43;100023.22;331514;29;9484;-70
2023/04/18 00:12:54;;;;;;;14.40;10.30;;;;;;;8.17;75.94;100012.91;334691;29;4618;-70
2023/04/18 00:13:06;;;;;;;15.45;10.32;;;;;;;8.17;75.84;100018.09;332046;28;9505;-70
2023/04/18 00:13:18;;;;;;;14.00;9.75;;;;;;;8.15;76.17;100014.69;334521;29;5302;-70
2023/04/18 00:13:31;;;;;;;14.13;9.43;;;;;;;8.12;75.96;100014.72;332913;29;5626;-70
2023/04/18 00:13:46;;;;;;;15.05;9.73;;;;;;;8.11;75.81;100016.47;331602;29;18096;-70
2023/04/18 00:13:58;;;;;;;14.93;9.90;;;;;;;8.14;75.66;100012.97;330416;29;17761;-70
2023/04/18 00:14:10;;;;;;;12.90;9.52;;;;;;;8.18;75.92;100014.59;333596;29;4602;-71
2023/04/18 00:14:23;;;;;;;12.77;9.15;;;;;;;8.11;75.85;100016.47;330953;29;17869;-70
2023/04/18 00:14:36;;;;;;;13.35;9.50;;;;;;;8.04;75.81;100017.44;332602;29;5236;-72
2023/04/18 00:14:51;;;;;;;14.60;9.50;;;;;;;8.00;76.20;100015.75;331140;29;17687;-70
2023/04/18 00:15:06;;;;;;;16.08;9.88;;;;;;;8.02;76.35;100014.00;331103;29;17940;-70
2023/04/18 00:15:18;;;;;;;14.73;9.65;;;;;;;7.95;76.82;100018.44;330954;29;18216;-70
2023/04/18 00:15:30;;;;;;;13.88;9.50;;;;;;;7.88;77.34;100014.22;334618;29;5174;-71
2023/04/18 00:15:43;;;;;;;14.45;9.55;;;;;;;7.86;77.53;100013.41;332024;29;9798;-70
2023/04/18 00:15:56;;;;;;;14.40;9.40;;;;;;;7.86;77.64;100013.41;333298;29;4721;-72
2023/04/18 00:16:08;;;;;;;13.68;9.65;;;;;;;7.83;77.61;100007.41;331992;29;18108;-70
2023/04/18 00:16:21;;;;;;;15.45;9.65;;;;;;;7.87;77.94;100009.94;334737;29;5152;-71
2023/04/18 00:16:33;;;;;;;16.33;9.98;;;;;;;7.81;77.76;100012.63;329912;29;17989;-72
2023/04/18 00:16:45;;;;;;;15.93;10.18;;;;;;;7.80;77.58;100013.50;333166;29;4678;-71
2023/04/18 00:16:57;;;;;;;15.40;10.05;;;;;;;7.79;78.16;100016.97;331760;29;12843;-72
2023/04/18 00:17:09;;;;;;;14.20;9.80;;;;;;;7.82;78.19;100013.47;333080;29;4741;-71
2023/04/18 00:17:22;;;;;;;13.02;9.63;;;;;;;7.85;77.90;100019.47;330926;29;10343;-70
2023/04/18 00:17:34;;;;;;;13.30;9.50;;;;;;;7.81;78.01;100010.03;333187;29;4916;-71
2023/04/18 00:17:47;;;;;;;15.30;9.60;;;;;;;7.85;77.74;100010.81;333131;29;4560;-70
2023/04/18 00:17:59;;;;;;;16.83;10.18;;;;;;;7.87;77.64;100014.25;330380;29;18043;-70
2023/04/18 00:18:15;;;;;;;16.15;10.55;;;;;;;7.85;78.10;100014.28;333928;29;4695;-72
2023/04/18 00:18:27;;;;;;;14.02;10.13;;;;;;;7.81;77.43;100015.22;331727;29;17964;-71
2023/04/18 00:18:39;;;;;;;13.27;10.13;;;;;;;7.82;77.87;100016.91;334648;29;4779;-71
2023/04/18 00:18:52;;;;;;;14.00;9.88;;;;;;;7.74;77.83;100013.59;334003;28;4635;-71
2023/04/18 00:19:05;;;;;;;16.25;10.07;;;;;;;7.78;77.68;100016.09;334171;29;18032;-71
2023/04/18 00:19:17;;;;;;;16.33;10.07;;;;;;;7.82;77.95;100013.47;331974;28;6358;-70
2023/04/18 00:19:29;;;;;;;14.27;9.73;;;;;;;7.86;77.89;100017.72;334818;29;5241;-70
2023/04/18 00:19:42;;;;;;;13.73;9.73;;;;;;;7.86;77.55;100013.41;335068;28;5601;-70
2023/04/18 00:19:55;;;;;;;13.02;9.77;;;;;;;7.77;76.82;100011.81;332561;28;19051;-70
2023/04/18 00:20:11;;;;;;;13.15;9.50;;;;;;;7.74;76.83;100013.59;331951;29;9571;-70
2023/04/18 00:20:25;;;;;;;12.45;9.32;;;;;;;7.52;77.08;100013.91;331349;29;17967;-70
2023/04/18 00:20:38;;;;;;;13.43;9.50;;;;;;;7.54;77.13;100012.13;332253;29;9177;-70
2023/04/18 00:20:49;;;;;;;14.00;9.70;;;;;;;7.60;77.34;100012.06;334403;29;4679;-72
2023/04/18 00:21:02;;;;;;;13.85;9.80;;;;;;;7.58;77.42;100012.97;332306;29;4628;-70
2023/04/18 00:21:15;;;;;;;14.77;9.80;;;;;;;7.62;77.44;100016.38;335030;29;4649;-70
2023/04/18 00:21:28;;;;;;;15.43;9.88;;;;;;;7.66;77.16;100010.25;331816;28;17729;-70
2023/04/18 00:21:43;;;;;;;13.45;9.30;;;;;;;7.53;77.19;100010.44;334375;29;4713;-70
2023/04/18 00:21:56;;;;;;;13.32;8.88;;;;;;;7.56;77.53;100010.38;330291;28;18371;-72
2023/04/18 00:22:10;;;;;;;13.63;9.30;;;;;;;7.57;78.40;100016.44;331572;28;18874;-70
2023/04/18 00:22:22;;;;;;;14.88;9.88;;;;;;;7.57;78.60;100012.09;332612;28;8468;-70
2023/04/18 00:22:34;;;;;;;16.25;10.27;;;;;;;7.60;78.58;100012.06;335195;28;4816;-71
2023/04/18 00:22:46;;;;;;;16.15;10.00;;;;;;;7.66;78.99;100016.28;335373;28;4652;-70
2023/04/18 00:22:59;;;;;;;14.70;9.82;;;;;;;7.69;78.67;100011.06;333368;28;18233;-71
2023/04/18 00:23:12;;;;;;;13.43;9.88;;;;;;;7.73;78.92;100011.91;336002;28;5453;-70
2023/04/18 00:23:26;;;;;;;16.05;9.80;;;;;;;7.71;78.25;100018.81;331258;29;18127;-71
2023/04/18 00:23:38;;;;;;;17.30;9.70;;;;;;;7.71;77.72;100009.31;333401;28;18297;-70
2023/04/18 00:23:50;;;;;;;16.17;9.82;;;;;;;7.77;78.07;100009.22;335879;28;4878;-70
2023/04/18 00:24:02;;;;;;;13.20;9.90;;;;;;;7.72;77.54;100002.41;332215;28;18942;-70
2023/04/18 00:24:15;;;;;;;13.30;9.85;;;;;;;7.59;77.16;100010.34;336397;28;4663;-70
2023/04/18 00:24:27;;;;;;;13.38;9.70;;;;;;;7.58;77.61;100008.63;333166;28;16284;-70
2023/04/18 00:24:39;;;;;;;12.68;9.48;;;;;;;7.58;78.15;100005.19;335175;28;5289;-70
2023/04/18 00:24:51;;;;;;;14.60;9.40;;;;;;;7.63;77.96;100010.31;336853;28;4692;-70
2023/04/18 00:25:03;;;;;;;14.55;9.70;;;;;;;7.69;78.52;100008.50;333585;28;18979;-70
2023/04/18 00:25:15;;;;;;;14.02;9.45;;;;;;;7.73;78.02;100001.53;336480;28;4681;-70
2023/04/18 00:25:27;;;;;;;14.10;9.32;;;;;;;7.72;77.70;100005.00;332859;28;18107;-70
2023/04/18 00:25:40;;;;;;;13.80;9.23;;;;;;;7.73;77.52;100006.72;336009;28;4901;-70
2023/04/18 00:25:52;;;;;;;14.23;9.48;;;;;;;7.68;77.06;100006.78;332460;28;10145;-70
2023/04/18 00:26:04;;;;;;;14.18;9.50;;;;;;;7.65;77.11;100012.00;335407;29;4586;-72
2023/04/18 00:26:16;;;;;;;13.35;9.25;;;;;;;7.62;76.96;100003.44;334715;29;5160;-71
2023/04/18 00:26:28;;;;;;;12.63;9.15;;;;;;;7.51;77.35;100009.63;331719;29;18216;-70
2023/04/18 00:26:40;;;;;;;13.98;9.40;;;;;;;7.57;77.56;100012.09;334493;29;5378;-72
2023/04/18 00:26:52;;;;;;;13.40;9.57;;;;;;;7.55;77.83;100006.09;332043;29;7102;-70
2023/04/18 00:27:04;;;;;;;12.63;9.57;;;;;;;7.58;78.64;100008.63;334792;29;4889;-72
2023/04/18 00:27:17;;;;;;;12.25;9.45;;;;;;;7.63;78.54;100005.16;335506;28;4609;-71
2023/04/18 00:27:29;;;;;;;12.30;9.38;;;;;;;7.67;78.66;100009.41;332014;29;18997;-70
2023/04/18 00:27:41;;;;;;;12.35;9.32;;;;;;;7.70;78.93;100011.94;334309;29;5404;-70
2023/04/18 00:27:53;;;;;;;13.45;9.65;;;;;;;7.72;78.74;100012.75;332153;28;18196;-71
2023/04/18 00:28:05;;;;;;;14.88;10.00;;;;;;;7.74;78.58;100004.09;333457;29;4576;-71
2023/04/18 00:28:17;;;;;;;14.03;9.53;;;;;;;7.76;78.35;100004.91;330802;29;5174;-70
2023/04/18 00:28:28;;;;;;;12.20;8.98;;;;;;;7.81;78.47;100010.03;333631;29;5259;-71
2023/04/18 00:28:41;;;;;;;12.07;8.85;;;;;;;7.84;78.75;100007.38;333167;29;5310;-70
2023/04/18 00:28:52;;;;;;;12.27;9.30;;;;;;;7.88;78.38;100011.63;331513;29;18299;-72
2023/04/18 00:29:04;;;;;;;13.05;9.93;;;;;;;7.90;78.25;100007.28;333774;29;4777;-71
2023/04/18 00:29:16;;;;;;;13.07;9.88;;;;;;;7.92;78.15;100002.94;334004;29;9997;-70
2023/04/18 00:29:30;;;;;;;14.10;9.80;;;;;;;7.95;78.36;100008.09;332467;29;17721;-70
2023/04/18 00:29:42;;;;;;;14.18;9.45;;;;;;;7.98;78.21;100002.84;331870;29;16500;-70
2023/04/18 00:29:54;;;;;;;13.43;9.55;;;;;;;7.88;78.29;100006.47;334750;29;4667;-71
2023/04/18 00:30:07;;;;;;;13.18;9.75;;;;;;;7.91;78.46;100001.25;333745;29;5176;-71
2023/04/18 00:30:20;;;;;;;12.32;9.43;;;;;;;7.93;78.64;100003.81;330575;29;18023;-70
2023/04/18 00:30:32;;;;;;;13.68;9.38;;;;;;;7.95;78.60;100002.91;331008;29;4700;-72
2023/04/18 00:30:44;;;;;;;14.85;9.57;;;;;;;7.99;78.54;100004.56;332548;29;4659;-71
2023/04/18 00:30:56;;;;;;;16.67;9.93;;;;;;;8.00;78.26;100003.66;333762;29;4500;-71
2023/04/18 00:31:08;;;;;;;16.02;9.73;;;;;;;8.00;78.84;100005.41;331136;29;18526;-71
2023/04/18 00:31:20;;;;;;;14.13;9.55;;;;;;;8.03;78.66;100004.50;334792;29;4614;-70
2023/04/18 00:31:32;;;;;;;12.45;9.32;;;;;;;8.05;78.55;100007.91;330979;29;17645;-71
2023/04/18 00:31:44;;;;;;;12.02;8.88;;;;;;;8.06;78.44;100004.47;332148;29;5403;-72
2023/04/18 00:31:56;;;;;;;12.55;8.85;;;;;;;8.04;79.00;100001.91;333888;29;5028;-70
2023/04/18 00:32:09;;;;;;;13.48;9.13;;;;;;;8.02;79.41;99997.63;330422;29;18950;-70
2023/04/18 00:32:20;;;;;;;15.20;9.65;;;;;;;7.98;79.50;100002.00;333307;29;5430;-70
2023/04/18 00:32:32;;;;;;;15.48;9.68;;;;;;;7.96;79.44;100004.59;330794;28;18243;-70
2023/04/18 00:32:44;;;;;;;13.48;9.98;;;;;;;7.98;79.50;100002.00;333858;29;5511;-71
2023/04/18 00:32:56;;;;;;;14.75;10.10;;;;;;;7.99;79.46;100004.56;335762;29;5112;-71
2023/04/18 00:33:08;;;;;;;15.52;9.85;;;;;;;7.95;79.56;99997.72;333245;29;18897;-70
2023/04/18 00:33:20;;;;;;;14.02;9.45;;;;;;;7.91;79.50;100001.25;335768;29;5159;-70
2023/04/18 00:33:33;;;;;;;13.48;9.15;;;;;;;7.84;79.91;100004.81;333481;29;17934;-70
2023/04/18 00:33:45;;;;;;;14.00;9.27;;;;;;;7.87;79.68;100009.94;333334;29;5078;-70
2023/04/18 00:33:57;;;;;;;15.15;9.80;;;;;;;7.82;79.58;100003.97;332806;28;5432;-70
2023/04/18 00:34:09;;;;;;;14.65;10.02;;;;;;;7.77;79.62;100001.47;334854;29;4654;-70
2023/04/18 00:34:21;;;;;;;14.52;10.23;;;;;;;7.76;80.03;100002.31;334154;29;5149;-70
2023/04/18 00:34:33;;;;;;;15.45;9.98;;;;;;;7.79;79.97;100007.47;330999;29;17902;-71
2023/04/18 00:34:45;;;;;;;15.60;10.02;;;;;;;7.76;80.05;100006.66;334710;29;4524;-70
2023/04/18 00:34:57;;;;;;;15.52;10.00;;;;;;;7.76;80.15;100006.66;331726;28;10641;-70
2023/04/18 00:35:09;;;;;;;14.30;10.00;;;;;;;7.77;80.52;100008.38;334270;28;4793;-70
2023/04/18 00:35:21;;;;;;;14.45;10.05;;;;;;;7.77;79.88;100008.38;334564;29;4716;-70
2023/04/18 00:35:33;;;;;;;15.60;10.30;;;;;;;7.75;79.48;100010.13;333063;29;18263;-70
2023/04/18 00:35:45;;;;;;;14.50;10.13;;;;;;;7.73;79.21;100002.38;335729;29;5212;-70
2023/04/18 00:35:57;;;;;;;14.23;9.88;;;;;;;7.76;79.32;99999.75;333409;29;9687;-70
2023/04/18 00:36:09;;;;;;;13.75;9.93;;;;;;;7.76;79.12;100001.47;336200;29;4549;-70
2023/04/18 00:36:21;;;;;;;16.55;10.35;;;;;;;7.80;79.24;100003.13;334979;29;7412;-70
2023/04/18 00:36:33;;;;;;;15.98;9.93;;;;;;;7.84;78.78;100003.94;331770;29;18144;-70
2023/04/18 00:36:45;;;;;;;14.57;9.50;;;;;;;7.84;78.78;100002.22;333843;29;4692;-71
2023/04/18 00:36:57;;;;;;;12.75;9.18;;;;;;;7.78;78.20;100004.91;331963;28;4616;-70
2023/04/18 00:37:14;;;;;;;12.60;9.48;;;;;;;7.70;77.83;100001.56;334423;28;4934;-70
2023/04/18 00:37:26;;;;;;;12.73;9.70;;;;;;;7.69;77.46;100005.06;333354;28;17580;-70
2023/04/18 00:37:38;;;;;;;13.90;9.82;;;;;;;7.67;77.80;100001.63;333270;29;18169;-71
2023/04/18 00:37:50;;;;;;;14.40;9.88;;;;;;;7.70;77.48;100001.56;333110;29;5181;-71
2023/04/18 00:38:02;;;;;;;14.88;9.73;;;;;;;7.65;77.23;99996.47;330109;29;17091;-71
2023/04/18 00:38:14;;;;;;;14.35;9.95;;;;;;;7.66;76.99;100010.25;333464;29;4756;-70
2023/04/18 00:38:26;;;;;;;14.27;10.00;;;;;;;7.64;76.79;100001.66;333100;29;4597;-72
2023/04/18 00:38:38;;;;;;;13.40;9.98;;;;;;;7.60;76.79;100001.69;331041;29;19002;-72
2023/04/18 00:38:50;;;;;;;13.85;9.77;;;;;;;7.55;77.26;100008.69;333489;29;4639;-71
2023/04/18 00:39:02;;;;;;;12.90;9.60;;;;;;;7.50;77.47;100000.13;329646;29;10494;-70
2023/04/18 00:39:14;;;;;;;13.65;9.85;;;;;;;7.53;78.29;99994.94;331917;29;5032;-71
2023/04/18 00:39:26;;;;;;;13.65;9.80;;;;;;;7.55;78.48;100006.09;332005;29;5078;-71
2023/04/18 00:39:38;;;;;;;14.18;9.85;;;;;;;7.57;78.85;99995.75;328497;29;7902;-71
2023/04/18 00:39:52;;;;;;;13.88;9.80;;;;;;;7.58;78.78;100003.47;331967;29;4616;-71
2023/04/18 00:40:05;;;;;;;13.43;9.60;;;;;;;7.57;78.96;99991.41;330673;29;18110;-72
2023/04/18 00:40:17;;;;;;;14.23;9.82;;;;;;;7.59;78.96;100000.00;329691;29;9889;-70
2023/04/18 00:40:29;;;;;;;14.57;9.75;;;;;;;7.57;79.05;99996.59;331149;29;4773;-70
2023/04/18 00:40:41;;;;;;;15.82;9.65;;;;;;;7.53;79.19;100000.09;331970;29;5361;-71
2023/04/18 00:40:53;;;;;;;16.33;10.10;;;;;;;7.56;79.06;99994.88;330631;29;17788;-70
2023/04/18 00:41:05;;;;;;;14.43;10.18;;;;;;;7.56;78.74;100000.03;333731;29;4624;-71
2023/04/18 00:41:19;;;;;;;14.35;10.25;;;;;;;7.56;79.05;100000.03;331795;29;18197;-70
2023/04/18 00:41:31;;;;;;;12.82;10.02;;;;;;;7.57;78.78;99995.75;335120;29;4612;-70
2023/04/18 00:41:43;;;;;;;13.68;9.93;;;;;;;7.59;78.95;99994.00;332162;29;17995;-71
2023/04/18 00:41:55;;;;;;;13.85;9.73;;;;;;;7.59;79.24;99997.41;333827;28;4671;-70
2023/04/18 00:42:06;;;;;;;14.13;9.70;;;;;;;7.52;78.93;99998.38;333743;29;4735;-71
2023/04/18 00:42:26;;;;;;;13.07;9.70;;;;;;;7.48;78.94;99998.44;331187;28;18060;-70
2023/04/18 00:42:38;;;;;;;14.40;9.57;;;;;;;7.54;79.08;99996.63;332739;28;17730;-71
2023/04/18 00:42:50;;;;;;;15.43;9.50;;;;;;;7.52;79.12;99998.38;334398;28;4763;-71
2023/04/18 00:43:02;;;;;;;15.18;9.60;;;;;;;7.54;79.33;99999.22;332151;29;9864;-70
2023/04/18 00:43:15;;;;;;;14.48;9.63;;;;;;;7.56;79.46;100000.03;334469;29;4652;-70
2023/04/18 00:43:27;;;;;;;15.15;9.88;;;;;;;7.58;79.51;100002.59;331585;29;17309;-70
2023/04/18 00:43:39;;;;;;;15.57;10.02;;;;;;;7.59;79.09;99994.00;331617;29;5851;-70
2023/04/18 00:43:52;;;;;;;15.68;9.98;;;;;;;7.54;78.91;100001.78;334360;29;5345;-70
2023/04/18 00:44:04;;;;;;;14.95;10.05;;;;;;;7.55;78.12;99997.50;329773;29;18177;-71
2023/04/18 00:44:16;;;;;;;14.98;10.07;;;;;;;7.54;78.68;99995.78;332186;29;4708;-71
2023/04/18 00:44:29;;;;;;;15.00;9.98;;;;;;;7.58;78.44;100002.59;329721;29;18184;-71
2023/04/18 00:44:41;;;;;;;16.73;10.27;;;;;;;7.55;78.25;99997.50;331105;29;6357;-70
2023/04/18 00:44:53;;;;;;;15.48;9.90;;;;;;;7.52;78.21;99997.53;330528;29;17896;-70
2023/04/18 00:45:06;;;;;;;16.05;10.00;;;;;;;7.52;79.14;99997.53;334988;29;4731;-70
2023/04/18 00:45:18;;;;;;;14.30;9.75;;;;;;;7.45;79.10;99996.78;331699;29;18993;-70
2023/04/18 00:45:30;;;;;;;15.00;9.63;;;;;;;7.52;79.43;100002.69;332636;29;5413;-71
2023/04/18 00:45:42;;;;;;;14.52;9.43;;;;;;;7.54;79.56;100001.78;330147;29;4842;-70
2023/04/18 00:45:55;;;;;;;14.63;9.48;;;;;;;7.58;79.66;100003.47;334904;28;4952;-71
2023/04/18 00:46:09;;;;;;;14.27;9.48;;;;;;;7.62;79.66;100006.84;330327;29;18330;-70
2023/04/18 00:46:21;;;;;;;14.38;9.80;;;;;;;7.65;79.50;100000.81;332239;29;4698;-70
2023/04/18 00:46:33;;;;;;;13.48;9.88;;;;;;;7.68;79.61;99998.16;331344;28;16467;-72
2023/04/18 00:46:46;;;;;;;13.00;9.90;;;;;;;7.71;79.23;99998.13;333740;29;4683;-72
2023/04/18 00:46:58;;;;;;;12.73;9.95;;;;;;;7.75;79.54;99999.78;333017;28;17811;-70
2023/04/18 00:47:10;;;;;;;13.38;9.77;;;;;;;7.76;79.78;100001.47;335861;28;5184;-70
2023/04/18 00:47:22;;;;;;;13.90;9.50;;;;;;;7.77;80.01;100003.19;335589;28;4620;-71
2023/04/18 00:47:34;;;;;;;13.75;9.77;;;;;;;7.77;80.06;100003.19;332320;29;17308;-70
2023/04/18 00:47:46;;;;;;;13.63;10.13;;;;;;;7.78;79.64;100004.91;335120;29;4627;-70
2023/04/18 00:47:58;;;;;;;14.25;10.30;;;;;;;7.77;80.43;100000.63;333521;28;5335;-71
2023/04/18 00:48:10;;;;;;;14.32;9.95;;;;;;;7.74;81.08;99998.91;335155;28;4661;-71
2023/04/18 00:48:23;;;;;;;15.05;10.00;;;;;;;7.77;80.75;100005.78;331630;29;10267;-71
2023/04/18 00:48:37;;;;;;;15.40;9.93;;;;;;;7.80;80.49;99997.97;333465;29;4668;-71
2023/04/18 00:48:49;;;;;;;13.95;9.93;;;;;;;7.84;80.72;100004.81;330894;29;18252;-71
2023/04/18 00:49:02;;;;;;;12.50;9.68;;;;;;;7.88;80.12;99996.09;334418;29;4687;-70
2023/04/18 00:49:14;;;;;;;13.50;9.73;;;;;;;7.91;80.30;99996.06;331708;29;17950;-71
2023/04/18 00:49:26;;;;;;;15.20;9.63;;;;;;;7.96;80.41;99994.25;333038;29;4619;-71
2023/04/18 00:49:38;;;;;;;15.13;9.95;;;;;;;7.98;80.22;99995.06;332257;29;18127;-71
2023/04/18 00:49:50;;;;;;;14.63;10.05;;;;;;;8.00;79.87;99998.50;333678;29;5605;-71
2023/04/18 00:50:03;;;;;;;13.95;9.95;;;;;;;8.05;79.68;100002.75;330825;29;16496;-70
2023/04/18 00:50:15;;;;;;;13.38;9.90;;;;;;;8.07;79.83;100000.97;334812;29;5425;-70
2023/04/18 00:50:27;;;;;;;14.10;9.98;;;;;;;8.09;79.63;99992.31;333760;29;4819;-70
2023/04/18 00:50:40;;;;;;;16.40;10.02;;;;;;;8.12;79.98;100004.34;331841;29;17713;-71
2023/04/18 00:50:52;;;;;;;16.42;9.70;;;;;;;8.15;79.80;99999.16;331860;29;4677;-71
2023/04/18 00:51:06;;;;;;;14.48;9.43;;;;;;;8.17;79.48;99998.22;330930;29;18986;-71
2023/04/18 00:51:18;;;;;;;12.52;9.43;;;;;;;8.19;79.30;100004.22;330990;29;4772;-71
2023/04/18 00:51:33;;;;;;;12.88;9.50;;;;;;;8.23;79.19;99998.97;333262;29;4616;-70
2023/04/18 00:51:46;;;;;;;12.82;9.38;;;;;;;8.25;79.15;99999.81;331126;29;17672;-71
2023/04/18 00:51:58;;;;;;;14.55;9.50;;;;;;;8.28;79.07;100003.22;332073;28;17920;-70
2023/04/18 00:52:14;;;;;;;14.15;9.60;;;;;;;8.26;79.04;99999.78;333406;28;4786;-71
2023/04/18 00:52:29;;;;;;;13.07;9.65;;;;;;;8.30;79.04;100003.19;331714;28;19190;-70
2023/04/18 00:52:43;;;;;;;15.02;10.05;;;;;;;8.32;78.82;100007.44;330886;29;18069;-70
2023/04/18 00:52:55;;;;;;;15.70;10.00;;;;;;;8.34;78.72;100000.50;332415;28;18178;-70
2023/04/18 00:53:09;;;;;;;14.05;9.55;;;;;;;8.37;78.88;100000.47;332675;28;10728;-70
2023/04/18 00:53:21;;;;;;;13.45;9.30;;;;;;;8.34;78.81;100000.50;336913;28;4513;-71
2023/04/18 00:53:34;;;;;;;14.32;9.52;;;;;;;8.33;79.13;99998.81;331633;28;18734;-71
2023/04/18 00:53:46;;;;;;;13.40;9.85;;;;;;;8.30;79.57;99996.25;337061;28;5346;-70
2023/04/18 00:53:58;;;;;;;13.93;10.00;;;;;;;8.25;79.85;100000.69;331598;28;18181;-71
2023/04/18 00:54:11;;;;;;;13.63;10.00;;;;;;;8.30;79.66;99992.84;333803;29;4742;-70
2023/04/18 00:54:26;;;;;;;13.02;9.88;;;;;;;8.34;79.37;99997.91;330950;29;17726;-71
2023/04/18 00:54:39;;;;;;;13.38;9.88;;;;;;;8.33;79.47;100003.13;332793;29;18227;-70
2023/04/18 00:54:51;;;;;;;13.45;9.45;;;;;;;8.32;79.33;100002.28;335879;29;4655;-70
2023/04/18 00:55:06;;;;;;;13.85;9.18;;;;;;;8.27;79.19;99998.03;332813;29;17509;-71
2023/04/18 00:55:19;;;;;;;14.20;9.50;;;;;;;8.27;79.01;100004.09;333521;29;15722;-70
2023/04/18 00:55:31;;;;;;;14.45;9.85;;;;;;;8.22;79.04;99999.88;335189;29;4563;-70
2023/04/18 00:55:43;;;;;;;16.10;10.10;;;;;;;8.20;79.02;100002.50;333001;29;16888;-70
2023/04/18 00:55:55;;;;;;;15.35;10.18;;;;;;;8.16;78.95;100000.84;332135;29;4500;-70
2023/04/18 00:56:07;;;;;;;13.98;9.95;;;;;;;8.20;79.40;99997.31;328393;29;5756;-70
2023/04/18 00:56:20;;;;;;;12.85;9.73;;;;;;;8.20;78.93;99999.91;332114;29;18308;-71
2023/04/18 00:56:33;;;;;;;14.73;9.93;;;;;;;8.14;79.00;100002.59;331476;29;8893;-70
2023/04/18 00:56:46;;;;;;;15.20;10.25;;;;;;;8.14;78.92;100002.59;329702;29;18853;-71
2023/04/18 00:56:58;;;;;;;13.98;10.07;;;;;;;8.11;79.14;99997.47;329480;29;14918;-72
2023/04/18 00:57:11;;;;;;;13.63;10.30;;;;;;;8.15;79.31;99996.56;331773;29;5090;-71
2023/04/18 00:57:23;;;;;;;13.95;10.43;;;;;;;8.20;78.99;99997.31;329826;29;17919;-71
2023/04/18 00:57:36;;;;;;;13.82;9.98;;;;;;;8.23;79.10;99999.88;333207;29;4687;-73
2023/04/18 00:57:48;;;;;;;13.23;9.73;;;;;;;8.15;78.72;99996.56;331891;29;17853;-70
2023/04/18 00:58:00;;;;;;;13.55;9.95;;;;;;;8.12;78.61;99996.59;333899;28;4866;-71
2023/04/18 00:58:13;;;;;;;13.75;10.10;;;;;;;8.11;78.12;99998.34;330546;28;11521;-70
2023/04/18 00:58:25;;;;;;;14.07;10.27;;;;;;;8.10;77.85;99999.19;334700;29;5476;-70
2023/04/18 00:58:39;;;;;;;13.82;10.25;;;;;;;8.08;77.99;99994.94;334066;28;8863;-71
2023/04/18 00:58:51;;;;;;;14.18;9.90;;;;;;;8.07;77.82;99998.38;332378;29;18002;-71
2023/04/18 00:59:05;;;;;;;14.77;9.77;;;;;;;8.04;77.61;99995.88;330711;29;18121;-71
2023/04/18 00:59:17;;;;;;;14.93;10.23;;;;;;;7.99;77.26;99994.22;333281;29;4721;-70
2023/04/18 00:59:29;;;;;;;14.88;10.20;;;;;;;7.93;76.96;99989.13;331182;29;18081;-71